sensor_id;sensor_type;location;lat;lon;timestamp;temperature;humidity
41547;DHT22;27271;45.412;10.852;2023-07-02T04:34:01;21.50;1.00
41547;DHT22;27271;45.412;10.852;2023-07-02T04:37:33;21.60;1.00
41547;DHT22;27271;45.412;10.852;2023-07-02T04:41:07;21.80;1.00
41547;DHT22;27271;45.412;10.852;2023-07-02T04:44:34;22.00;99.90
41547;DHT22;27271;45.412;10.852;2023-07-02T04:48:01;22.30;99.90
41547;DHT22;27271;45.412;10.852;2023-07-02T04:51:40;22.70;99.90
41547;DHT22;27271;45.412;10.852;2023-07-02T04:55:38;23.10;1.00
41547;DHT22;27271;45.412;10.852;2023-07-02T04:59:42;23.60;99.90
41547;DHT22;27271;45.412;10.852;2023-07-02T05:03:52;23.70;97.50
41547;DHT22;27271;45.412;10.852;2023-07-02T05:07:22;24.10;1.00
41547;DHT22;27271;45.412;10.852;2023-07-02T05:11:33;24.40;99.90
41547;DHT22;27271;45.412;10.852;2023-07-02T05:20:23;24.90;99.90
41547;DHT22;27271;45.412;10.852;2023-07-02T05:24:12;25.30;99.90
41547;DHT22;27271;45.412;10.852;2023-07-02T05:28:14;26.20;22.40
41547;DHT22;27271;45.412;10.852;2023-07-02T05:32:11;27.20;4.90
41547;DHT22;27271;45.412;10.852;2023-07-02T05:35:49;27.70;1.00
41547;DHT22;27271;45.412;10.852;2023-07-02T05:40:07;27.90;1.00
41547;DHT22;27271;45.412;10.852;2023-07-02T05:43:41;28.00;1.00
41547;DHT22;27271;45.412;10.852;2023-07-02T05:48:12;28.50;1.00
41547;DHT22;27271;45.412;10.852;2023-07-02T06:01:27;30.30;1.00
41547;DHT22;27271;45.412;10.852;2023-07-02T06:04:49;29.80;1.00
41547;DHT22;27271;45.412;10.852;2023-07-02T06:08:12;29.90;1.00
41547;DHT22;27271;45.412;10.852;2023-07-02T06:11:34;29.60;1.00
41547;DHT22;27271;45.412;10.852;2023-07-02T06:15:05;29.70;1.00
41547;DHT22;27271;45.412;10.852;2023-07-02T06:18:34;29.30;1.00
41547;DHT22;27271;45.412;10.852;2023-07-02T06:22:08;29.70;1.00
41547;DHT22;27271;45.412;10.852;2023-07-02T06:30:16;29.80;1.00
41547;DHT22;27271;45.412;10.852;2023-07-02T06:33:39;30.00;1.00
41547;DHT22;27271;45.412;10.852;2023-07-02T06:37:04;30.00;1.00
41547;DHT22;27271;45.412;10.852;2023-07-02T06:40:28;30.30;1.00
41547;DHT22;27271;45.412;10.852;2023-07-02T06:43:51;31.10;1.00
41547;DHT22;27271;45.412;10.852;2023-07-02T06:47:13;31.30;1.00
41547;DHT22;27271;45.412;10.852;2023-07-02T06:50:35;32.10;1.00
41547;DHT22;27271;45.412;10.852;2023-07-02T06:53:58;31.80;1.00
41547;DHT22;27271;45.412;10.852;2023-07-02T06:57:20;31.70;1.00
41547;DHT22;27271;45.412;10.852;2023-07-02T07:00:42;32.80;1.00
41547;DHT22;27271;45.412;10.852;2023-07-02T07:04:04;32.50;1.00
41547;DHT22;27271;45.412;10.852;2023-07-02T07:07:26;32.10;1.00
41547;DHT22;27271;45.412;10.852;2023-07-02T07:10:49;32.80;1.00
41547;DHT22;27271;45.412;10.852;2023-07-02T07:14:21;33.30;1.00
41547;DHT22;27271;45.412;10.852;2023-07-02T07:17:53;33.00;99.90
41547;DHT22;27271;45.412;10.852;2023-07-02T07:21:20;33.30;1.00
41547;DHT22;27271;45.412;10.852;2023-07-02T07:24:57;32.70;1.00
41547;DHT22;27271;45.412;10.852;2023-07-02T07:28:19;34.20;99.90
41547;DHT22;27271;45.412;10.852;2023-07-02T07:31:41;35.30;99.90
41547;DHT22;27271;45.412;10.852;2023-07-02T07:35:07;34.90;99.90
41547;DHT22;27271;45.412;10.852;2023-07-02T07:38:29;35.30;99.90
41547;DHT22;27271;45.412;10.852;2023-07-02T07:41:53;35.30;99.90
41547;DHT22;27271;45.412;10.852;2023-07-02T07:45:16;34.70;99.90
41547;DHT22;27271;45.412;10.852;2023-07-02T07:49:10;34.70;99.90
41547;DHT22;27271;45.412;10.852;2023-07-02T07:52:58;35.10;99.90
41547;DHT22;27271;45.412;10.852;2023-07-02T07:56:21;35.60;99.90
41547;DHT22;27271;45.412;10.852;2023-07-02T07:59:45;34.60;99.90
41547;DHT22;27271;45.412;10.852;2023-07-02T08:03:11;35.40;99.90
41547;DHT22;27271;45.412;10.852;2023-07-02T08:06:41;36.10;99.90
41547;DHT22;27271;45.412;10.852;2023-07-02T08:10:12;35.00;99.90
41547;DHT22;27271;45.412;10.852;2023-07-02T08:13:35;34.00;99.90
41547;DHT22;27271;45.412;10.852;2023-07-02T08:16:57;33.50;99.90
41547;DHT22;27271;45.412;10.852;2023-07-02T08:20:19;32.60;99.90
41547;DHT22;27271;45.412;10.852;2023-07-02T08:23:43;32.00;99.90
41547;DHT22;27271;45.412;10.852;2023-07-02T08:27:16;31.50;99.90
41547;DHT22;27271;45.412;10.852;2023-07-02T08:30:57;31.60;99.90
41547;DHT22;27271;45.412;10.852;2023-07-02T08:34:22;32.70;99.90
41547;DHT22;27271;45.412;10.852;2023-07-02T08:37:45;32.00;99.90
41547;DHT22;27271;45.412;10.852;2023-07-02T08:41:08;31.80;99.90
41547;DHT22;27271;45.412;10.852;2023-07-02T08:44:30;32.40;99.90
41547;DHT22;27271;45.412;10.852;2023-07-02T08:47:52;34.40;99.90
41547;DHT22;27271;45.412;10.852;2023-07-02T08:51:18;35.40;99.90
41547;DHT22;27271;45.412;10.852;2023-07-02T08:54:42;36.30;99.90
41547;DHT22;27271;45.412;10.852;2023-07-02T08:58:04;35.50;99.90
41547;DHT22;27271;45.412;10.852;2023-07-02T09:01:26;33.90;99.90
41547;DHT22;27271;45.412;10.852;2023-07-02T09:04:59;34.30;99.90
41547;DHT22;27271;45.412;10.852;2023-07-02T09:08:25;34.50;99.90
41547;DHT22;27271;45.412;10.852;2023-07-02T09:11:50;35.10;99.90
41547;DHT22;27271;45.412;10.852;2023-07-02T09:15:14;36.00;99.90
41547;DHT22;27271;45.412;10.852;2023-07-02T09:18:36;35.80;99.90
41547;DHT22;27271;45.412;10.852;2023-07-02T09:21:59;35.30;99.90
41547;DHT22;27271;45.412;10.852;2023-07-02T09:25:22;35.90;99.90
41547;DHT22;27271;45.412;10.852;2023-07-02T09:28:44;36.80;99.90
41547;DHT22;27271;45.412;10.852;2023-07-02T09:32:06;36.80;99.90
41547;DHT22;27271;45.412;10.852;2023-07-02T09:35:32;37.90;99.90
41547;DHT22;27271;45.412;10.852;2023-07-02T09:38:54;38.90;99.90
41547;DHT22;27271;45.412;10.852;2023-07-02T09:42:17;39.30;99.90
41547;DHT22;27271;45.412;10.852;2023-07-02T09:45:46;39.00;99.90
41547;DHT22;27271;45.412;10.852;2023-07-02T09:49:12;36.40;99.90
41547;DHT22;27271;45.412;10.852;2023-07-02T09:52:35;36.00;99.90
41547;DHT22;27271;45.412;10.852;2023-07-02T09:55:58;34.70;99.90
41547;DHT22;27271;45.412;10.852;2023-07-02T09:59:20;33.00;99.90
41547;DHT22;27271;45.412;10.852;2023-07-02T10:02:48;31.80;99.90
41547;DHT22;27271;45.412;10.852;2023-07-02T10:06:10;31.50;99.90
41547;DHT22;27271;45.412;10.852;2023-07-02T10:09:38;32.50;99.90
41547;DHT22;27271;45.412;10.852;2023-07-02T10:13:00;34.30;99.90
41547;DHT22;27271;45.412;10.852;2023-07-02T10:16:22;35.60;99.90
41547;DHT22;27271;45.412;10.852;2023-07-02T10:19:52;35.50;99.90
41547;DHT22;27271;45.412;10.852;2023-07-02T10:23:37;36.90;99.90
41547;DHT22;27271;45.412;10.852;2023-07-02T10:27:37;36.90;99.90
41547;DHT22;27271;45.412;10.852;2023-07-02T10:31:00;35.20;99.90
41547;DHT22;27271;45.412;10.852;2023-07-02T10:34:35;33.90;99.90
41547;DHT22;27271;45.412;10.852;2023-07-02T10:37:58;33.90;99.90
41547;DHT22;27271;45.412;10.852;2023-07-02T10:41:28;34.10;99.90
41547;DHT22;27271;45.412;10.852;2023-07-02T10:44:52;34.20;99.90
41547;DHT22;27271;45.412;10.852;2023-07-02T10:48:14;34.10;99.90
41547;DHT22;27271;45.412;10.852;2023-07-02T10:51:36;34.50;99.90
41547;DHT22;27271;45.412;10.852;2023-07-02T10:54:58;35.80;99.90
41547;DHT22;27271;45.412;10.852;2023-07-02T10:58:20;36.70;99.90
41547;DHT22;27271;45.412;10.852;2023-07-02T11:01:42;36.90;99.90
41547;DHT22;27271;45.412;10.852;2023-07-02T11:05:06;35.90;99.90
41547;DHT22;27271;45.412;10.852;2023-07-02T11:08:38;34.90;99.90
41547;DHT22;27271;45.412;10.852;2023-07-02T11:12:00;33.50;99.90
41547;DHT22;27271;45.412;10.852;2023-07-02T11:15:23;33.90;99.90
41547;DHT22;27271;45.412;10.852;2023-07-02T11:18:45;33.10;99.90
41547;DHT22;27271;45.412;10.852;2023-07-02T11:22:07;32.90;99.90
41547;DHT22;27271;45.412;10.852;2023-07-02T11:25:29;33.20;99.90
41547;DHT22;27271;45.412;10.852;2023-07-02T11:28:52;32.60;99.90
41547;DHT22;27271;45.412;10.852;2023-07-02T11:32:14;33.20;99.90
41547;DHT22;27271;45.412;10.852;2023-07-02T11:35:37;33.40;99.90
41547;DHT22;27271;45.412;10.852;2023-07-02T11:38:59;33.10;99.90
41547;DHT22;27271;45.412;10.852;2023-07-02T11:42:21;33.00;99.90
41547;DHT22;27271;45.412;10.852;2023-07-02T11:45:47;32.50;99.90
41547;DHT22;27271;45.412;10.852;2023-07-02T11:49:10;32.40;99.90
41547;DHT22;27271;45.412;10.852;2023-07-02T11:52:32;32.50;99.90
41547;DHT22;27271;45.412;10.852;2023-07-02T11:55:58;32.80;99.90
41547;DHT22;27271;45.412;10.852;2023-07-02T11:59:52;33.20;99.90
41547;DHT22;27271;45.412;10.852;2023-07-02T12:03:14;33.40;99.90
41547;DHT22;27271;45.412;10.852;2023-07-02T12:06:36;33.40;99.90
41547;DHT22;27271;45.412;10.852;2023-07-02T12:10:20;33.90;99.90
41547;DHT22;27271;45.412;10.852;2023-07-02T12:14:08;33.90;99.90
41547;DHT22;27271;45.412;10.852;2023-07-02T12:17:56;34.30;99.90
41547;DHT22;27271;45.412;10.852;2023-07-02T12:21:20;35.10;99.90
41547;DHT22;27271;45.412;10.852;2023-07-02T12:24:49;35.10;99.90
41547;DHT22;27271;45.412;10.852;2023-07-02T12:28:26;34.90;99.90
41547;DHT22;27271;45.412;10.852;2023-07-02T12:31:52;34.60;99.90
41547;DHT22;27271;45.412;10.852;2023-07-02T12:35:25;34.20;99.90
41547;DHT22;27271;45.412;10.852;2023-07-02T12:38:47;34.00;99.90
41547;DHT22;27271;45.412;10.852;2023-07-02T12:42:09;34.10;99.90
41547;DHT22;27271;45.412;10.852;2023-07-02T12:45:32;34.00;99.90
41547;DHT22;27271;45.412;10.852;2023-07-02T12:48:54;32.70;99.90
41547;DHT22;27271;45.412;10.852;2023-07-02T12:52:16;31.90;99.90
41547;DHT22;27271;45.412;10.852;2023-07-02T12:55:38;32.60;99.90
41547;DHT22;27271;45.412;10.852;2023-07-02T12:59:02;32.90;99.90
41547;DHT22;27271;45.412;10.852;2023-07-02T13:02:24;32.60;99.90
41547;DHT22;27271;45.412;10.852;2023-07-02T13:05:46;33.30;99.90
41547;DHT22;27271;45.412;10.852;2023-07-02T13:09:09;33.60;99.90
41547;DHT22;27271;45.412;10.852;2023-07-02T13:12:31;33.70;99.90
41547;DHT22;27271;45.412;10.852;2023-07-02T13:15:54;33.70;99.90
41547;DHT22;27271;45.412;10.852;2023-07-02T13:19:16;33.30;99.90
41547;DHT22;27271;45.412;10.852;2023-07-02T13:22:38;32.60;99.90
41547;DHT22;27271;45.412;10.852;2023-07-02T13:26:03;32.20;99.90
41547;DHT22;27271;45.412;10.852;2023-07-02T13:29:25;32.50;99.90
41547;DHT22;27271;45.412;10.852;2023-07-02T13:32:48;32.20;99.90
41547;DHT22;27271;45.412;10.852;2023-07-02T13:36:10;32.40;99.90
41547;DHT22;27271;45.412;10.852;2023-07-02T13:39:32;32.30;99.90
41547;DHT22;27271;45.412;10.852;2023-07-02T13:42:54;32.20;99.90
41547;DHT22;27271;45.412;10.852;2023-07-02T13:46:17;32.70;99.90
41547;DHT22;27271;45.412;10.852;2023-07-02T13:49:40;33.80;99.90
41547;DHT22;27271;45.412;10.852;2023-07-02T13:53:02;34.10;99.90
41547;DHT22;27271;45.412;10.852;2023-07-02T13:56:24;34.00;99.90
41547;DHT22;27271;45.412;10.852;2023-07-02T13:59:46;33.10;99.90
41547;DHT22;27271;45.412;10.852;2023-07-02T14:03:08;33.40;99.90
41547;DHT22;27271;45.412;10.852;2023-07-02T14:06:31;34.10;99.90
41547;DHT22;27271;45.412;10.852;2023-07-02T14:09:53;34.60;99.90
41547;DHT22;27271;45.412;10.852;2023-07-02T14:13:19;34.70;99.90
41547;DHT22;27271;45.412;10.852;2023-07-02T14:16:41;34.80;99.90
41547;DHT22;27271;45.412;10.852;2023-07-02T14:20:05;34.80;99.90
41547;DHT22;27271;45.412;10.852;2023-07-02T14:23:28;35.00;99.90
41547;DHT22;27271;45.412;10.852;2023-07-02T14:26:50;34.90;99.90
41547;DHT22;27271;45.412;10.852;2023-07-02T14:30:12;34.70;99.90
41547;DHT22;27271;45.412;10.852;2023-07-02T14:33:36;33.90;99.90
41547;DHT22;27271;45.412;10.852;2023-07-02T14:36:59;33.80;99.90
41547;DHT22;27271;45.412;10.852;2023-07-02T14:40:21;33.60;99.90
41547;DHT22;27271;45.412;10.852;2023-07-02T14:43:43;33.80;99.90
41547;DHT22;27271;45.412;10.852;2023-07-02T14:47:05;33.50;99.90
41547;DHT22;27271;45.412;10.852;2023-07-02T14:50:28;33.40;99.90
41547;DHT22;27271;45.412;10.852;2023-07-02T14:53:52;33.10;99.90
41547;DHT22;27271;45.412;10.852;2023-07-02T14:57:14;32.60;99.90
41547;DHT22;27271;45.412;10.852;2023-07-02T15:00:53;32.30;99.90
41547;DHT22;27271;45.412;10.852;2023-07-02T15:04:15;32.40;99.90
41547;DHT22;27271;45.412;10.852;2023-07-02T15:07:38;32.50;99.90
41547;DHT22;27271;45.412;10.852;2023-07-02T15:11:01;33.10;99.90
41547;DHT22;27271;45.412;10.852;2023-07-02T15:14:23;33.70;99.90
41547;DHT22;27271;45.412;10.852;2023-07-02T15:17:46;33.60;99.90
41547;DHT22;27271;45.412;10.852;2023-07-02T15:21:08;34.00;99.90
41547;DHT22;27271;45.412;10.852;2023-07-02T15:24:31;34.50;99.90
41547;DHT22;27271;45.412;10.852;2023-07-02T15:27:58;34.90;99.90
41547;DHT22;27271;45.412;10.852;2023-07-02T15:31:20;35.20;99.90
41547;DHT22;27271;45.412;10.852;2023-07-02T15:34:43;35.00;99.90
41547;DHT22;27271;45.412;10.852;2023-07-02T15:38:05;34.90;99.90
41547;DHT22;27271;45.412;10.852;2023-07-02T15:41:27;34.70;99.90
41547;DHT22;27271;45.412;10.852;2023-07-02T15:44:49;34.50;99.90
41547;DHT22;27271;45.412;10.852;2023-07-02T15:48:11;33.50;99.90
41547;DHT22;27271;45.412;10.852;2023-07-02T15:51:34;32.70;99.90
41547;DHT22;27271;45.412;10.852;2023-07-02T15:54:58;32.20;99.90
41547;DHT22;27271;45.412;10.852;2023-07-02T15:58:20;32.40;99.90
41547;DHT22;27271;45.412;10.852;2023-07-02T16:01:42;32.50;99.90
41547;DHT22;27271;45.412;10.852;2023-07-02T16:05:12;32.70;99.90
41547;DHT22;27271;45.412;10.852;2023-07-02T16:08:35;32.80;99.90
41547;DHT22;27271;45.412;10.852;2023-07-02T16:11:57;32.70;99.90
41547;DHT22;27271;45.412;10.852;2023-07-02T16:15:20;32.70;99.90
41547;DHT22;27271;45.412;10.852;2023-07-02T16:18:42;33.00;99.90
41547;DHT22;27271;45.412;10.852;2023-07-02T16:22:04;32.90;99.90
41547;DHT22;27271;45.412;10.852;2023-07-02T16:25:27;33.40;99.90
41547;DHT22;27271;45.412;10.852;2023-07-02T16:28:49;33.60;99.90
41547;DHT22;27271;45.412;10.852;2023-07-02T16:32:12;33.40;99.90
41547;DHT22;27271;45.412;10.852;2023-07-02T16:35:39;34.00;99.90
41547;DHT22;27271;45.412;10.852;2023-07-02T16:39:01;34.40;99.90
41547;DHT22;27271;45.412;10.852;2023-07-02T16:42:23;34.00;99.90
41547;DHT22;27271;45.412;10.852;2023-07-02T16:45:51;33.70;99.90
41547;DHT22;27271;45.412;10.852;2023-07-02T16:49:14;34.00;99.90
41547;DHT22;27271;45.412;10.852;2023-07-02T16:52:37;34.00;99.90
41547;DHT22;27271;45.412;10.852;2023-07-02T16:56:01;33.60;99.90
41547;DHT22;27271;45.412;10.852;2023-07-02T16:59:25;33.20;99.90
41547;DHT22;27271;45.412;10.852;2023-07-02T17:02:48;32.90;99.90
41547;DHT22;27271;45.412;10.852;2023-07-02T17:06:10;32.50;99.90
41547;DHT22;27271;45.412;10.852;2023-07-02T17:09:35;32.60;99.90
41547;DHT22;27271;45.412;10.852;2023-07-02T17:12:59;32.20;99.90
41547;DHT22;27271;45.412;10.852;2023-07-02T17:16:21;31.90;99.90
41547;DHT22;27271;45.412;10.852;2023-07-02T17:19:48;32.10;99.90
41547;DHT22;27271;45.412;10.852;2023-07-02T17:23:10;31.80;99.90
41547;DHT22;27271;45.412;10.852;2023-07-02T17:26:32;32.00;99.90
41547;DHT22;27271;45.412;10.852;2023-07-02T17:29:57;32.10;99.90
41547;DHT22;27271;45.412;10.852;2023-07-02T17:33:20;32.20;99.90
41547;DHT22;27271;45.412;10.852;2023-07-02T17:36:43;32.10;99.90
41547;DHT22;27271;45.412;10.852;2023-07-02T17:40:07;32.00;99.90
41547;DHT22;27271;45.412;10.852;2023-07-02T17:43:29;31.80;99.90
41547;DHT22;27271;45.412;10.852;2023-07-02T17:46:53;31.50;99.90
41547;DHT22;27271;45.412;10.852;2023-07-02T17:50:15;31.20;99.90
41547;DHT22;27271;45.412;10.852;2023-07-02T17:53:39;31.00;99.90
41547;DHT22;27271;45.412;10.852;2023-07-02T17:57:01;30.80;99.90
41547;DHT22;27271;45.412;10.852;2023-07-02T18:00:23;30.60;99.90
41547;DHT22;27271;45.412;10.852;2023-07-02T18:03:45;30.50;99.90
41547;DHT22;27271;45.412;10.852;2023-07-02T18:07:09;30.20;99.90
41547;DHT22;27271;45.412;10.852;2023-07-02T18:10:31;29.90;99.90
41547;DHT22;27271;45.412;10.852;2023-07-02T18:13:53;29.80;99.90
41547;DHT22;27271;45.412;10.852;2023-07-02T18:17:16;29.30;99.90
41547;DHT22;27271;45.412;10.852;2023-07-02T18:20:38;29.10;99.90
41547;DHT22;27271;45.412;10.852;2023-07-02T18:24:00;28.80;99.90
41547;DHT22;27271;45.412;10.852;2023-07-02T18:27:23;28.80;99.90
41547;DHT22;27271;45.412;10.852;2023-07-02T18:30:47;28.60;99.90
41547;DHT22;27271;45.412;10.852;2023-07-02T18:34:09;28.60;99.90
41547;DHT22;27271;45.412;10.852;2023-07-02T18:37:32;28.50;1.00
41547;DHT22;27271;45.412;10.852;2023-07-02T18:41:05;28.40;1.00
41547;DHT22;27271;45.412;10.852;2023-07-02T18:44:29;28.30;1.00
41547;DHT22;27271;45.412;10.852;2023-07-02T18:47:56;28.20;1.00
41547;DHT22;27271;45.412;10.852;2023-07-02T18:51:19;28.00;1.00
41547;DHT22;27271;45.412;10.852;2023-07-02T18:54:41;27.90;1.00
41547;DHT22;27271;45.412;10.852;2023-07-02T18:58:03;27.50;1.00
41547;DHT22;27271;45.412;10.852;2023-07-02T19:01:26;27.40;1.00
41547;DHT22;27271;45.412;10.852;2023-07-02T19:04:50;27.40;1.00
41547;DHT22;27271;45.412;10.852;2023-07-02T19:08:12;27.50;1.00
41547;DHT22;27271;45.412;10.852;2023-07-02T19:11:35;27.50;1.00
41547;DHT22;27271;45.412;10.852;2023-07-02T19:14:58;27.50;1.00
41547;DHT22;27271;45.412;10.852;2023-07-02T19:18:21;27.40;1.00
41547;DHT22;27271;45.412;10.852;2023-07-02T19:21:43;27.30;1.00
41547;DHT22;27271;45.412;10.852;2023-07-02T19:25:05;27.10;1.00
41547;DHT22;27271;45.412;10.852;2023-07-02T19:28:28;27.10;1.00
41547;DHT22;27271;45.412;10.852;2023-07-02T19:31:50;27.00;1.00
41547;DHT22;27271;45.412;10.852;2023-07-02T19:35:12;26.80;1.00
41547;DHT22;27271;45.412;10.852;2023-07-02T19:38:34;26.70;1.00
41547;DHT22;27271;45.412;10.852;2023-07-02T19:41:56;26.60;1.00
41547;DHT22;27271;45.412;10.852;2023-07-02T19:45:19;26.60;1.00
41547;DHT22;27271;45.412;10.852;2023-07-02T19:48:41;26.50;1.00
41547;DHT22;27271;45.412;10.852;2023-07-02T19:52:03;26.40;1.00
41547;DHT22;27271;45.412;10.852;2023-07-02T19:55:25;26.40;1.00
41547;DHT22;27271;45.412;10.852;2023-07-02T19:58:48;26.40;25.40
41547;DHT22;27271;45.412;10.852;2023-07-02T20:02:12;26.40;18.00
41547;DHT22;27271;45.412;10.852;2023-07-02T20:05:40;26.50;35.00
41547;DHT22;27271;45.412;10.852;2023-07-02T20:09:02;26.50;1.00
41547;DHT22;27271;45.412;10.852;2023-07-02T20:12:25;26.30;1.00
41547;DHT22;27271;45.412;10.852;2023-07-02T20:15:50;26.40;1.00
41547;DHT22;27271;45.412;10.852;2023-07-02T20:19:15;26.30;13.60
41547;DHT22;27271;45.412;10.852;2023-07-02T20:22:42;26.20;31.20
41547;DHT22;27271;45.412;10.852;2023-07-02T20:26:13;26.20;58.60
41547;DHT22;27271;45.412;10.852;2023-07-02T20:29:36;26.10;70.20
41547;DHT22;27271;45.412;10.852;2023-07-02T20:32:59;25.90;77.80
41547;DHT22;27271;45.412;10.852;2023-07-02T20:36:21;25.90;99.90
41547;DHT22;27271;45.412;10.852;2023-07-02T20:39:44;25.70;99.90
41547;DHT22;27271;45.412;10.852;2023-07-02T20:43:08;25.70;99.90
41547;DHT22;27271;45.412;10.852;2023-07-02T20:46:35;25.60;99.90
41547;DHT22;27271;45.412;10.852;2023-07-02T20:49:58;25.50;99.90
41547;DHT22;27271;45.412;10.852;2023-07-02T20:53:21;25.50;99.90
41547;DHT22;27271;45.412;10.852;2023-07-02T20:56:46;25.30;99.90
41547;DHT22;27271;45.412;10.852;2023-07-02T21:00:09;25.20;99.90
41547;DHT22;27271;45.412;10.852;2023-07-02T21:03:33;25.20;99.90
41547;DHT22;27271;45.412;10.852;2023-07-02T21:06:55;25.10;99.90
41547;DHT22;27271;45.412;10.852;2023-07-02T21:10:18;25.00;99.90
41547;DHT22;27271;45.412;10.852;2023-07-02T21:13:40;25.00;99.90
41547;DHT22;27271;45.412;10.852;2023-07-02T21:17:02;25.00;99.90
41547;DHT22;27271;45.412;10.852;2023-07-02T21:20:24;24.80;99.90
41547;DHT22;27271;45.412;10.852;2023-07-02T21:23:48;24.90;99.90
41547;DHT22;27271;45.412;10.852;2023-07-02T21:27:10;25.00;99.90
41547;DHT22;27271;45.412;10.852;2023-07-02T21:30:32;24.90;99.90
41547;DHT22;27271;45.412;10.852;2023-07-02T21:33:54;24.90;99.90
41547;DHT22;27271;45.412;10.852;2023-07-02T21:37:16;24.80;99.90
41547;DHT22;27271;45.412;10.852;2023-07-02T21:40:39;24.80;99.90
41547;DHT22;27271;45.412;10.852;2023-07-02T21:44:01;24.90;99.90
41547;DHT22;27271;45.412;10.852;2023-07-02T21:47:23;25.00;66.80
41547;DHT22;27271;45.412;10.852;2023-07-02T21:50:50;25.00;63.90
41547;DHT22;27271;45.412;10.852;2023-07-02T21:54:13;25.10;81.70
41547;DHT22;27271;45.412;10.852;2023-07-02T21:57:35;25.10;91.20
41547;DHT22;27271;45.412;10.852;2023-07-02T22:00:57;25.10;41.10
41547;DHT22;27271;45.412;10.852;2023-07-02T22:04:19;25.10;44.70
41547;DHT22;27271;45.412;10.852;2023-07-02T22:07:42;25.10;34.30
41547;DHT22;27271;45.412;10.852;2023-07-02T22:11:11;25.10;38.90
41547;DHT22;27271;45.412;10.852;2023-07-02T22:14:44;25.20;11.30
41547;DHT22;27271;45.412;10.852;2023-07-02T22:18:06;25.20;13.40
41547;DHT22;27271;45.412;10.852;2023-07-02T22:21:28;25.20;11.00
41547;DHT22;27271;45.412;10.852;2023-07-02T22:24:50;25.20;1.00
41547;DHT22;27271;45.412;10.852;2023-07-02T22:28:13;25.20;1.00
